Time;durP1;ratioP1;P1;durP2;ratioP2;P2;SDS_P1;SDS_P2;PMS_P1;PMS_P2;Temp;Humidity;BMP_temperature;BMP_pressure;BME280_temperature;BME280_humidity;BME280_pressure;Samples;Min_cycle;Max_cycle;Signal;HPM_P1;HPM_P2
2023/07/23 00:01:25;;;;;;;12.07;5.47;;;;;;;;;;5094604;28;20617;-76
2023/07/23 00:03:52;;;;;;;9.60;4.90;;;;;;;;;;5094948;28;20196;-77
2023/07/23 00:06:19;;;;;;;10.57;5.75;;;;;;;;;;5094342;28;20204;-75
2023/07/23 00:08:47;;;;;;;7.55;5.55;;;;;;;;;;5094003;28;20204;-76
2023/07/23 00:11:14;;;;;;;11.10;5.50;;;;;;;;;;5093986;28;20211;-76
2023/07/23 00:13:40;;;;;;;8.17;4.83;;;;;;;;;;5093926;28;20200;-76
2023/07/23 00:16:08;;;;;;;11.50;4.87;;;;;;;;;;5094518;28;20196;-76
2023/07/23 00:18:35;;;;;;;9.43;5.73;;;;;;;;;;5094482;28;20220;-75
2023/07/23 00:21:02;;;;;;;10.13;6.40;;;;;;;;;;5094432;28;20200;-76
2023/07/23 00:23:29;;;;;;;11.33;5.50;;;;;;;;;;5093868;28;20670;-76
2023/07/23 00:25:57;;;;;;;12.07;5.17;;;;;;;;;;5094301;28;20200;-75
2023/07/23 00:28:24;;;;;;;10.57;3.50;;;;;;;;;;5093484;28;20257;-76
2023/07/23 00:30:51;;;;;;;5.63;2.83;;;;;;;;;;5093658;28;20200;-76
2023/07/23 00:33:20;;;;;;;6.77;3.07;;;;;;;;;;5093977;28;20192;-76
2023/07/23 00:35:47;;;;;;;4.07;2.83;;;;;;;;;;5093426;28;20207;-76
2023/07/23 00:38:14;;;;;;;4.07;2.70;;;;;;;;;;5094133;28;20303;-75
2023/07/23 00:40:41;;;;;;;4.60;3.63;;;;;;;;;;5093544;28;20199;-75
2023/07/23 00:43:10;;;;;;;7.70;3.37;;;;;;;;;;5093291;28;20203;-76
2023/07/23 00:45:37;;;;;;;3.40;2.50;;;;;;;;;;5093925;28;20200;-76
2023/07/23 00:48:04;;;;;;;7.00;3.53;;;;;;;;;;5093259;28;20207;-75
2023/07/23 00:50:31;;;;;;;9.67;3.53;;;;;;;;;;5093045;28;20679;-76
2023/07/23 00:52:58;;;;;;;5.60;3.53;;;;;;;;;;5093851;28;20199;-76
2023/07/23 00:55:25;;;;;;;4.43;3.33;;;;;;;;;;5093162;28;20197;-75
2023/07/23 00:57:52;;;;;;;7.30;3.53;;;;;;;;;;5092976;28;20235;-76
2023/07/23 01:00:20;;;;;;;8.40;4.07;;;;;;;;;;5093027;28;20196;-76
2023/07/23 01:02:47;;;;;;;6.33;4.13;;;;;;;;;;5092623;28;20204;-76
2023/07/23 01:05:14;;;;;;;5.00;3.60;;;;;;;;;;5093009;28;20200;-76
2023/07/23 01:07:43;;;;;;;6.10;3.30;;;;;;;;;;5093045;28;20609;-76
2023/07/23 01:10:10;;;;;;;5.80;3.53;;;;;;;;;;5093701;28;20219;-76
2023/07/23 01:12:37;;;;;;;3.47;2.60;;;;;;;;;;5093716;28;20195;-76
2023/07/23 01:15:06;;;;;;;6.20;3.47;;;;;;;;;;5092708;28;20265;-75
2023/07/23 01:17:35;;;;;;;8.90;3.57;;;;;;;;;;5092617;28;20311;-76
2023/07/23 01:20:03;;;;;;;5.33;3.73;;;;;;;;;;5093303;28;20257;-76
2023/07/23 01:22:32;;;;;;;4.93;3.67;;;;;;;;;;5092843;28;20200;-76
2023/07/23 01:24:59;;;;;;;8.17;3.80;;;;;;;;;;5093297;28;20196;-76
2023/07/23 01:27:26;;;;;;;7.53;4.53;;;;;;;;;;5092521;28;20196;-76
2023/07/23 01:29:53;;;;;;;7.17;4.03;;;;;;;;;;5092551;28;20207;-76
2023/07/23 01:32:19;;;;;;;6.60;4.00;;;;;;;;;;5092529;28;20554;-76
2023/07/23 01:34:46;;;;;;;5.97;3.67;;;;;;;;;;5092385;28;20253;-76
2023/07/23 01:37:14;;;;;;;9.03;3.83;;;;;;;;;;5092658;28;20623;-76
2023/07/23 01:39:43;;;;;;;7.03;4.50;;;;;;;;;;5093009;28;20203;-76
2023/07/23 01:42:10;;;;;;;11.27;4.40;;;;;;;;;;5092715;28;20196;-76
2023/07/23 01:44:37;;;;;;;6.03;4.37;;;;;;;;;;5092251;28;20670;-76
2023/07/23 01:47:04;;;;;;;7.77;4.17;;;;;;;;;;5092862;28;20584;-76
2023/07/23 01:49:31;;;;;;;7.63;4.63;;;;;;;;;;5092607;28;20253;-76
2023/07/23 01:51:58;;;;;;;7.07;5.13;;;;;;;;;;5092583;28;20224;-76
2023/07/23 01:54:24;;;;;;;5.63;3.70;;;;;;;;;;5092185;28;20203;-76
2023/07/23 01:56:53;;;;;;;6.60;3.53;;;;;;;;;;5092637;28;20203;-76
2023/07/23 01:59:20;;;;;;;5.70;4.57;;;;;;;;;;5092487;28;20698;-76
2023/07/23 02:01:46;;;;;;;8.47;5.10;;;;;;;;;;5092284;28;20604;-76
2023/07/23 02:04:13;;;;;;;9.10;5.13;;;;;;;;;;5092569;28;20196;-76
2023/07/23 02:06:40;;;;;;;9.23;4.90;;;;;;;;;;5092368;28;20200;-76
2023/07/23 02:09:07;;;;;;;6.67;4.57;;;;;;;;;;5091788;28;20199;-76
2023/07/23 02:11:34;;;;;;;8.93;4.70;;;;;;;;;;5092893;28;20196;-75
2023/07/23 02:14:02;;;;;;;7.23;4.63;;;;;;;;;;5091084;28;20203;-75
2023/07/23 02:16:29;;;;;;;7.77;4.53;;;;;;;;;;5091805;28;20679;-75
2023/07/23 02:18:56;;;;;;;5.77;4.50;;;;;;;;;;5092349;28;20216;-76
2023/07/23 02:21:23;;;;;;;7.57;4.37;;;;;;;;;;5091755;28;20200;-75
2023/07/23 02:23:50;;;;;;;6.30;4.80;;;;;;;;;;5091855;28;20204;-75
2023/07/23 02:26:17;;;;;;;7.27;4.60;;;;;;;;;;5092439;28;20200;-76
2023/07/23 02:28:43;;;;;;;6.50;4.77;;;;;;;;;;5091972;28;20221;-76
2023/07/23 02:31:11;;;;;;;9.63;4.70;;;;;;;;;;5092476;28;20203;-76
2023/07/23 02:33:38;;;;;;;9.63;4.20;;;;;;;;;;5091589;28;20571;-76
2023/07/23 02:36:05;;;;;;;7.10;4.63;;;;;;;;;;5091589;28;20196;-76
2023/07/23 02:38:32;;;;;;;9.00;4.87;;;;;;;;;;5091586;28;20609;-75
2023/07/23 02:41:00;;;;;;;6.87;4.87;;;;;;;;;;5091639;28;20192;-76
2023/07/23 02:43:26;;;;;;;6.87;4.50;;;;;;;;;;5091986;28;20192;-76
2023/07/23 02:45:53;;;;;;;7.97;4.97;;;;;;;;;;5091646;28;20614;-76
2023/07/23 02:48:21;;;;;;;7.70;4.97;;;;;;;;;;5091509;28;20262;-76
2023/07/23 02:50:48;;;;;;;6.63;5.07;;;;;;;;;;5091697;28;20231;-76
2023/07/23 02:53:15;;;;;;;6.30;4.77;;;;;;;;;;5091561;28;20252;-76
2023/07/23 02:55:41;;;;;;;9.20;5.27;;;;;;;;;;5091845;28;20199;-76
2023/07/23 02:58:08;;;;;;;7.73;5.00;;;;;;;;;;5091378;28;20708;-76
2023/07/23 03:00:37;;;;;;;9.37;5.60;;;;;;;;;;5091445;28;20582;-76
2023/07/23 03:03:06;;;;;;;7.63;4.60;;;;;;;;;;5091636;28;20192;-76
2023/07/23 03:05:35;;;;;;;8.67;4.57;;;;;;;;;;5091854;28;20228;-76
2023/07/23 03:08:02;;;;;;;8.03;4.17;;;;;;;;;;5090581;28;20208;-76
2023/07/23 03:10:29;;;;;;;5.43;4.30;;;;;;;;;;5091275;28;20203;-75
2023/07/23 03:12:56;;;;;;;7.97;5.63;;;;;;;;;;5091057;28;20204;-76
2023/07/23 03:15:23;;;;;;;10.03;4.57;;;;;;;;;;5091538;28;20200;-76
2023/07/23 03:17:51;;;;;;;5.23;4.23;;;;;;;;;;5092158;28;20287;-76
2023/07/23 03:20:17;;;;;;;5.10;3.90;;;;;;;;;;5091581;28;20228;-76
2023/07/23 03:22:46;;;;;;;8.53;4.20;;;;;;;;;;5092212;28;20196;-75
2023/07/23 03:25:12;;;;;;;7.10;4.13;;;;;;;;;;5092476;28;20203;-76
2023/07/23 03:27:39;;;;;;;5.27;4.10;;;;;;;;;;5094875;28;20196;-76
2023/07/23 03:30:07;;;;;;;5.27;4.77;;;;;;;;;;5095252;28;20200;-75
2023/07/23 03:32:34;;;;;;;8.33;4.77;;;;;;;;;;5095079;28;20208;-76
2023/07/23 03:35:01;;;;;;;6.73;4.27;;;;;;;;;;5108677;28;20196;-76
2023/07/23 03:37:27;;;;;;;8.13;4.90;;;;;;;;;;5115273;28;20203;-76
2023/07/23 03:39:56;;;;;;;5.33;4.00;;;;;;;;;;5115500;28;20321;-76
2023/07/23 03:42:24;;;;;;;9.57;4.57;;;;;;;;;;5115085;28;20569;-76
2023/07/23 03:44:51;;;;;;;5.80;4.43;;;;;;;;;;5115143;28;20196;-76
2023/07/23 03:47:19;;;;;;;8.23;4.97;;;;;;;;;;5114985;28;20200;-76
2023/07/23 03:49:47;;;;;;;6.23;4.13;;;;;;;;;;5115163;28;20622;-76
2023/07/23 03:52:14;;;;;;;7.60;4.87;;;;;;;;;;5115438;28;20215;-76
2023/07/23 03:54:41;;;;;;;6.67;4.63;;;;;;;;;;5113260;28;20196;-76
2023/07/23 03:57:09;;;;;;;6.77;4.10;;;;;;;;;;5115077;28;20195;-76
2023/07/23 03:59:37;;;;;;;6.67;4.63;;;;;;;;;;5114822;28;20359;-76
2023/07/23 04:02:04;;;;;;;7.23;5.33;;;;;;;;;;5115101;28;20199;-76
2023/07/23 04:04:31;;;;;;;5.43;4.53;;;;;;;;;;5114677;28;20188;-76
2023/07/23 04:06:57;;;;;;;6.57;4.80;;;;;;;;;;5114470;28;20195;-76
2023/07/23 04:09:24;;;;;;;5.67;5.00;;;;;;;;;;5115266;28;20561;-76
2023/07/23 04:11:51;;;;;;;6.20;4.80;;;;;;;;;;5114633;28;20195;-76
2023/07/23 04:14:19;;;;;;;11.00;4.57;;;;;;;;;;5113613;28;20199;-76
2023/07/23 04:16:47;;;;;;;7.50;4.07;;;;;;;;;;5113849;28;20210;-76
2023/07/23 04:19:14;;;;;;;8.03;5.27;;;;;;;;;;5114331;28;20727;-76
2023/07/23 04:21:41;;;;;;;9.50;4.97;;;;;;;;;;5114289;28;20196;-76
2023/07/23 04:24:08;;;;;;;8.57;5.03;;;;;;;;;;5103481;28;20206;-76
2023/07/23 04:26:34;;;;;;;8.30;4.83;;;;;;;;;;5095260;28;20192;-76
2023/07/23 04:29:01;;;;;;;19.50;5.70;;;;;;;;;;5100055;28;20200;-76
2023/07/23 04:31:31;;;;;;;7.23;5.47;;;;;;;;;;5093356;28;20208;-76
2023/07/23 04:33:58;;;;;;;8.27;5.67;;;;;;;;;;5094438;28;20195;-76
2023/07/23 04:36:25;;;;;;;8.27;4.93;;;;;;;;;;5092916;28;20203;-76
2023/07/23 04:38:51;;;;;;;5.60;4.10;;;;;;;;;;5101057;28;20690;-76
2023/07/23 04:41:18;;;;;;;10.23;4.90;;;;;;;;;;5093497;28;20215;-76
2023/07/23 04:43:45;;;;;;;7.13;5.07;;;;;;;;;;5093935;28;20201;-76
2023/07/23 04:46:12;;;;;;;9.53;5.70;;;;;;;;;;5093650;28;20616;-76
2023/07/23 04:48:40;;;;;;;8.33;5.07;;;;;;;;;;5093985;28;20235;-76
2023/07/23 04:51:09;;;;;;;7.80;4.70;;;;;;;;;;5093724;28;20220;-76
2023/07/23 04:53:36;;;;;;;10.17;4.93;;;;;;;;;;5093112;28;20196;-76
2023/07/23 04:56:04;;;;;;;8.13;4.70;;;;;;;;;;5093764;28;20196;-76
2023/07/23 04:58:31;;;;;;;7.77;4.93;;;;;;;;;;5092966;28;20219;-76
2023/07/23 05:01:01;;;;;;;6.90;5.40;;;;;;;;;;5093137;28;20200;-76
2023/07/23 05:03:27;;;;;;;5.97;5.30;;;;;;;;;;5093303;28;20261;-76
2023/07/23 05:05:56;;;;;;;8.97;5.57;;;;;;;;;;5093307;28;20201;-76
2023/07/23 05:08:23;;;;;;;6.23;5.40;;;;;;;;;;5092563;28;20196;-76
2023/07/23 05:10:49;;;;;;;7.93;5.27;;;;;;;;;;5092808;28;20207;-76
2023/07/23 05:13:16;;;;;;;7.47;5.50;;;;;;;;;;5092827;28;20693;-76
2023/07/23 05:15:43;;;;;;;6.97;5.23;;;;;;;;;;5092889;28;20685;-76
2023/07/23 05:18:10;;;;;;;7.73;6.67;;;;;;;;;;5093033;28;20207;-76
2023/07/23 05:20:37;;;;;;;8.70;5.33;;;;;;;;;;5093236;28;20232;-76
2023/07/23 05:23:05;;;;;;;7.37;5.30;;;;;;;;;;5092750;28;20200;-76
2023/07/23 05:25:31;;;;;;;7.57;5.23;;;;;;;;;;5091109;28;20666;-76
2023/07/23 05:27:57;;;;;;;10.57;5.63;;;;;;;;;;5093078;28;20200;-77
2023/07/23 05:30:24;;;;;;;8.03;5.23;;;;;;;;;;5093434;28;20206;-76
2023/07/23 05:32:51;;;;;;;8.20;6.43;;;;;;;;;;5093271;28;20278;-76
2023/07/23 05:35:18;;;;;;;8.23;5.17;;;;;;;;;;5092333;28;20203;-76
2023/07/23 05:37:44;;;;;;;5.50;5.00;;;;;;;;;;5092342;28;20203;-76
2023/07/23 05:40:13;;;;;;;9.70;5.03;;;;;;;;;;5092257;28;20224;-76
2023/07/23 05:42:40;;;;;;;9.13;5.30;;;;;;;;;;5092165;28;20689;-76
2023/07/23 05:45:08;;;;;;;10.93;5.67;;;;;;;;;;5092272;28;20200;-76
2023/07/23 05:47:35;;;;;;;9.20;4.77;;;;;;;;;;5092539;28;20196;-76
2023/07/23 05:50:02;;;;;;;7.30;5.33;;;;;;;;;;5092311;28;20196;-76
2023/07/23 05:52:29;;;;;;;5.83;5.17;;;;;;;;;;5092156;28;20670;-76
2023/07/23 05:54:56;;;;;;;7.40;5.87;;;;;;;;;;5092432;28;20207;-76
2023/07/23 05:57:25;;;;;;;10.97;5.63;;;;;;;;;;5090710;28;20200;-77
2023/07/23 05:59:52;;;;;;;9.97;5.50;;;;;;;;;;5091987;28;20224;-76
2023/07/23 06:02:19;;;;;;;6.00;4.97;;;;;;;;;;5092886;28;20207;-76
2023/07/23 06:04:46;;;;;;;7.20;5.78;;;;;;;;;;5093072;28;20207;-76
2023/07/23 06:07:12;;;;;;;7.30;5.05;;;;;;;;;;5092880;28;20203;-77
2023/07/23 06:09:39;;;;;;;6.93;5.45;;;;;;;;;;5092391;28;20619;-76
2023/07/23 06:12:07;;;;;;;7.90;5.53;;;;;;;;;;5109918;28;20204;-76
2023/07/23 06:14:35;;;;;;;7.07;4.82;;;;;;;;;;5112089;28;20199;-76
2023/07/23 06:17:02;;;;;;;7.53;5.72;;;;;;;;;;5112479;28;20202;-76
2023/07/23 06:19:29;;;;;;;11.23;6.88;;;;;;;;;;5092568;28;20226;-76
2023/07/23 06:21:55;;;;;;;11.63;5.90;;;;;;;;;;5092524;28;20192;-76
2023/07/23 06:24:22;;;;;;;6.60;5.55;;;;;;;;;;5090639;28;20196;-77
2023/07/23 06:26:49;;;;;;;12.45;6.22;;;;;;;;;;5091707;28;20677;-76
2023/07/23 06:29:16;;;;;;;9.35;6.00;;;;;;;;;;5091747;28;20203;-76
2023/07/23 06:31:44;;;;;;;7.88;5.20;;;;;;;;;;5091698;28;20662;-76
2023/07/23 06:34:11;;;;;;;5.70;4.65;;;;;;;;;;5091662;28;20231;-76
2023/07/23 06:36:37;;;;;;;11.77;5.32;;;;;;;;;;5103205;28;20206;-76
2023/07/23 06:39:04;;;;;;;8.93;5.13;;;;;;;;;;5094057;28;20212;-76
2023/07/23 06:41:31;;;;;;;13.38;5.63;;;;;;;;;;5091751;28;20211;-76
2023/07/23 06:43:58;;;;;;;9.05;5.50;;;;;;;;;;5091679;28;20698;-77
2023/07/23 06:46:24;;;;;;;10.50;5.40;;;;;;;;;;5091822;28;20200;-77
2023/07/23 06:48:53;;;;;;;10.32;4.80;;;;;;;;;;5108612;28;20286;-76
2023/07/23 06:51:19;;;;;;;7.50;5.50;;;;;;;;;;5111818;28;20230;-76
2023/07/23 06:53:46;;;;;;;9.57;6.50;;;;;;;;;;5112242;28;20204;-76
2023/07/23 06:56:13;;;;;;;11.02;5.72;;;;;;;;;;5111799;28;20199;-76
2023/07/23 06:58:41;;;;;;;8.65;4.97;;;;;;;;;;5111900;28;20658;-76
2023/07/23 07:01:08;;;;;;;11.55;6.10;;;;;;;;;;5114437;28;20693;-77
2023/07/23 07:03:35;;;;;;;9.80;5.68;;;;;;;;;;5115788;28;20661;-76
2023/07/23 07:06:04;;;;;;;7.97;6.40;;;;;;;;;;5099117;28;20203;-76
2023/07/23 07:08:31;;;;;;;6.93;5.07;;;;;;;;;;5095245;28;20192;-76
2023/07/23 07:10:59;;;;;;;6.03;5.03;;;;;;;;;;5095353;28;20196;-76
2023/07/23 07:13:26;;;;;;;9.70;5.60;;;;;;;;;;5096001;28;20249;-76
2023/07/23 07:15:53;;;;;;;6.43;4.57;;;;;;;;;;5094997;28;20196;-76
2023/07/23 07:18:20;;;;;;;11.10;5.35;;;;;;;;;;5095134;28;20204;-77
2023/07/23 07:20:53;;;;;;;8.18;4.88;;;;;;;;;;5095049;28;20220;-76
2023/07/23 07:23:22;;;;;;;9.60;5.68;;;;;;;;;;5095287;28;20196;-76
2023/07/23 07:25:49;;;;;;;8.57;6.03;;;;;;;;;;5094933;28;20192;-77
2023/07/23 07:28:16;;;;;;;8.60;5.82;;;;;;;;;;5095259;28;20196;-76
2023/07/23 07:30:42;;;;;;;11.50;5.43;;;;;;;;;;5095254;28;20204;-76
2023/07/23 07:33:09;;;;;;;9.18;5.45;;;;;;;;;;5094866;28;20568;-76
2023/07/23 07:35:36;;;;;;;12.15;5.15;;;;;;;;;;5094986;28;20203;-76
2023/07/23 07:38:03;;;;;;;7.82;5.22;;;;;;;;;;5097836;28;20191;-76
2023/07/23 07:40:31;;;;;;;11.55;6.15;;;;;;;;;;5114933;28;20227;-76
2023/07/23 07:42:58;;;;;;;13.90;6.53;;;;;;;;;;5115375;28;20192;-76
2023/07/23 07:45:25;;;;;;;10.85;6.10;;;;;;;;;;5115142;28;20207;-76
2023/07/23 07:47:52;;;;;;;8.45;5.30;;;;;;;;;;5098573;28;20203;-76
2023/07/23 07:50:20;;;;;;;9.60;5.97;;;;;;;;;;5095056;28;20232;-76
2023/07/23 07:52:47;;;;;;;6.88;5.18;;;;;;;;;;5094860;28;20635;-76
2023/07/23 07:55:14;;;;;;;7.45;5.45;;;;;;;;;;5094368;28;20196;-77
2023/07/23 07:57:44;;;;;;;8.68;6.03;;;;;;;;;;5094291;28;20197;-76
2023/07/23 08:00:12;;;;;;;8.45;5.85;;;;;;;;;;5094168;28;20227;-76
2023/07/23 08:02:39;;;;;;;7.63;5.82;;;;;;;;;;5103717;28;20200;-76
2023/07/23 08:05:07;;;;;;;9.35;6.60;;;;;;;;;;5095041;28;20218;-76
2023/07/23 08:07:35;;;;;;;7.47;5.80;;;;;;;;;;5095622;28;20291;-76
2023/07/23 08:10:02;;;;;;;7.68;6.15;;;;;;;;;;5114932;28;20203;-76
2023/07/23 08:12:29;;;;;;;12.73;6.55;;;;;;;;;;5112895;28;20264;-76
2023/07/23 08:14:58;;;;;;;14.93;6.53;;;;;;;;;;5115021;28;20199;-76
2023/07/23 08:17:25;;;;;;;9.82;6.57;;;;;;;;;;5114290;28;20666;-76
2023/07/23 08:19:52;;;;;;;10.20;6.07;;;;;;;;;;5113996;28;20216;-76
2023/07/23 08:22:19;;;;;;;12.55;6.75;;;;;;;;;;5103165;28;20214;-76
2023/07/23 08:24:46;;;;;;;9.75;6.55;;;;;;;;;;5093654;28;20203;-76
2023/07/23 08:27:18;;;;;;;11.40;6.50;;;;;;;;;;5094075;28;20196;-76
2023/07/23 08:29:46;;;;;;;8.82;6.75;;;;;;;;;;5096224;28;20290;-76
2023/07/23 08:32:16;;;;;;;10.30;5.93;;;;;;;;;;5104963;28;20195;-76
2023/07/23 08:34:44;;;;;;;8.32;6.93;;;;;;;;;;5093147;28;20226;-76
2023/07/23 08:37:12;;;;;;;11.48;6.22;;;;;;;;;;5102670;28;20249;-76
2023/07/23 08:39:39;;;;;;;9.85;6.10;;;;;;;;;;5113098;28;20197;-76
2023/07/23 08:42:15;;;;;;;10.43;6.25;;;;;;;;;;5113191;28;20708;-76
2023/07/23 08:45:09;;;;;;;8.90;5.97;;;;;;;;;;5113766;28;20191;-76
2023/07/23 08:47:38;;;;;;;11.00;6.60;;;;;;;;;;5114592;28;20195;-76
2023/07/23 08:50:06;;;;;;;9.85;6.25;;;;;;;;;;5113542;28;20199;-76
2023/07/23 08:52:34;;;;;;;7.10;6.00;;;;;;;;;;5114759;28;20209;-76
2023/07/23 08:55:01;;;;;;;11.82;6.82;;;;;;;;;;5114689;28;20195;-76
2023/07/23 08:57:28;;;;;;;9.18;6.82;;;;;;;;;;5112584;28;20199;-76
2023/07/23 08:59:56;;;;;;;7.55;6.15;;;;;;;;;;5113632;28;20681;-75
2023/07/23 09:02:25;;;;;;;9.23;5.63;;;;;;;;;;5113786;28;20207;-76
2023/07/23 09:04:53;;;;;;;7.53;5.60;;;;;;;;;;5113393;28;20206;-76
2023/07/23 09:07:21;;;;;;;9.30;6.32;;;;;;;;;;5113471;28;20614;-76
2023/07/23 09:09:49;;;;;;;7.05;5.95;;;;;;;;;;5113276;28;20290;-76
2023/07/23 09:12:16;;;;;;;7.50;6.22;;;;;;;;;;5093319;28;20258;-76
2023/07/23 09:14:44;;;;;;;7.85;6.07;;;;;;;;;;5093048;28;20573;-75
2023/07/23 09:17:18;;;;;;;8.27;6.22;;;;;;;;;;5099271;28;20202;-76
2023/07/23 09:19:44;;;;;;;7.38;5.93;;;;;;;;;;5113674;28;20195;-75
2023/07/23 09:22:13;;;;;;;8.70;6.60;;;;;;;;;;5113738;28;20203;-76
2023/07/23 09:24:40;;;;;;;7.15;6.45;;;;;;;;;;5112786;28;20203;-76
2023/07/23 09:27:10;;;;;;;9.68;6.85;;;;;;;;;;5113476;28;20196;-76
2023/07/23 09:29:38;;;;;;;9.27;6.70;;;;;;;;;;5113269;28;20200;-76
2023/07/23 09:32:06;;;;;;;9.73;6.90;;;;;;;;;;5113091;28;20199;-76
2023/07/23 09:34:34;;;;;;;7.50;5.80;;;;;;;;;;5081708;28;20212;-76
2023/07/23 09:37:01;;;;;;;10.05;6.75;;;;;;;;;;5092458;28;20204;-76
2023/07/23 09:39:33;;;;;;;7.82;6.53;;;;;;;;;;5092317;28;20200;-76
2023/07/23 09:42:03;;;;;;;7.32;6.50;;;;;;;;;;5092547;28;20234;-76
2023/07/23 09:44:30;;;;;;;7.38;6.18;;;;;;;;;;5092420;28;20239;-76
2023/07/23 09:46:59;;;;;;;7.88;6.80;;;;;;;;;;5092886;28;20206;-76
2023/07/23 09:49:29;;;;;;;10.25;6.75;;;;;;;;;;5092433;28;20739;-76
2023/07/23 09:51:56;;;;;;;7.85;6.43;;;;;;;;;;5091158;28;20216;-76
2023/07/23 09:54:22;;;;;;;11.85;7.07;;;;;;;;;;5112497;28;20200;-76
2023/07/23 09:56:51;;;;;;;10.35;7.20;;;;;;;;;;5112783;28;20576;-76
2023/07/23 09:59:19;;;;;;;7.75;6.75;;;;;;;;;;5110979;28;20223;-76
2023/07/23 10:01:46;;;;;;;10.02;6.72;;;;;;;;;;5113447;28;20223;-77
2023/07/23 10:04:15;;;;;;;10.77;7.72;;;;;;;;;;5112416;28;20196;-76
2023/07/23 10:06:43;;;;;;;7.20;6.47;;;;;;;;;;5091491;28;20203;-76
2023/07/23 10:09:12;;;;;;;9.25;6.22;;;;;;;;;;5092255;28;20199;-76
2023/07/23 10:11:39;;;;;;;9.73;6.60;;;;;;;;;;5092065;28;20647;-77
2023/07/23 10:14:07;;;;;;;9.38;7.00;;;;;;;;;;5102503;28;20202;-76
2023/07/23 10:16:38;;;;;;;7.43;6.72;;;;;;;;;;5111650;28;20213;-77
2023/07/23 10:19:06;;;;;;;27.95;7.82;;;;;;;;;;5112781;28;20284;-76
2023/07/23 10:21:33;;;;;;;8.55;6.70;;;;;;;;;;5112575;28;20219;-77
2023/07/23 10:24:01;;;;;;;11.52;6.57;;;;;;;;;;5112038;28;20203;-76
2023/07/23 10:26:29;;;;;;;8.70;6.93;;;;;;;;;;5110671;28;20191;-76
2023/07/23 10:29:09;;;;;;;7.32;6.60;;;;;;;;;;5112105;28;20675;-77
2023/07/23 10:31:38;;;;;;;9.02;6.88;;;;;;;;;;5099155;28;20204;-76
2023/07/23 10:34:41;;;;;;;9.13;6.28;;;;;;;;;;5091962;28;20199;-77
2023/07/23 10:37:12;;;;;;;8.90;6.55;;;;;;;;;;5095813;28;20227;-77
2023/07/23 10:39:39;;;;;;;7.40;6.50;;;;;;;;;;5095910;28;20682;-76
2023/07/23 10:42:06;;;;;;;8.13;6.68;;;;;;;;;;5095730;28;20224;-76
2023/07/23 10:44:33;;;;;;;12.20;6.85;;;;;;;;;;5096087;28;20204;-77
2023/07/23 10:47:35;;;;;;;8.23;6.13;;;;;;;;;;5077762;28;20621;-77
2023/07/23 10:50:12;;;;;;;11.77;7.70;;;;;;;;;;5095483;28;20592;-76
2023/07/23 10:52:39;;;;;;;8.30;6.97;;;;;;;;;;5095803;28;20260;-77
2023/07/23 10:55:08;;;;;;;9.20;6.95;;;;;;;;;;5099450;28;20561;-76
2023/07/23 10:57:39;;;;;;;9.77;7.57;;;;;;;;;;5114786;28;20620;-76
2023/07/23 11:00:19;;;;;;;7.60;6.65;;;;;;;;;;5115516;28;20202;-77
2023/07/23 11:02:48;;;;;;;10.07;6.60;;;;;;;;;;5115916;28;20620;-77
2023/07/23 11:05:15;;;;;;;8.65;6.70;;;;;;;;;;5115693;28;20202;-77
2023/07/23 11:07:42;;;;;;;11.23;6.53;;;;;;;;;;5115798;28;20227;-77
2023/07/23 11:10:22;;;;;;;9.98;6.03;;;;;;;;;;5116308;28;20222;-76
2023/07/23 11:12:49;;;;;;;7.47;6.53;;;;;;;;;;5115501;28;20634;-76
2023/07/23 11:15:17;;;;;;;8.38;6.30;;;;;;;;;;5115568;28;20585;-77
2023/07/23 11:17:43;;;;;;;8.82;6.60;;;;;;;;;;5115743;28;20202;-76
2023/07/23 11:20:12;;;;;;;7.57;6.63;;;;;;;;;;5115417;28;20206;-76
2023/07/23 11:22:43;;;;;;;7.93;6.20;;;;;;;;;;5115880;28;20209;-76
2023/07/23 11:25:15;;;;;;;9.93;5.95;;;;;;;;;;5115289;28;20253;-77
2023/07/23 11:27:42;;;;;;;10.85;5.95;;;;;;;;;;5115303;28;20294;-76
2023/07/23 11:30:13;;;;;;;6.78;5.55;;;;;;;;;;5115262;28;20222;-77
2023/07/23 11:32:40;;;;;;;7.53;6.57;;;;;;;;;;5113790;28;20199;-76
2023/07/23 11:35:09;;;;;;;6.38;5.55;;;;;;;;;;5115267;28;20206;-76
2023/07/23 11:37:37;;;;;;;15.05;6.18;;;;;;;;;;5115688;28;20195;-76
2023/07/23 11:40:04;;;;;;;6.60;5.90;;;;;;;;;;5115624;28;20203;-76
2023/07/23 11:42:33;;;;;;;10.65;5.97;;;;;;;;;;5116027;28;20272;-77
2023/07/23 11:45:01;;;;;;;8.25;5.72;;;;;;;;;;5115598;28;20579;-76
2023/07/23 11:47:28;;;;;;;6.63;5.93;;;;;;;;;;5114965;28;20195;-76
2023/07/23 11:49:54;;;;;;;6.15;5.55;;;;;;;;;;5114691;28;20191;-76
2023/07/23 11:52:23;;;;;;;6.05;5.13;;;;;;;;;;5101718;28;20196;-77
2023/07/23 11:54:51;;;;;;;6.32;5.22;;;;;;;;;;5093295;28;20560;-78
2023/07/23 11:57:26;;;;;;;6.57;5.60;;;;;;;;;;5105553;28;20238;-78
2023/07/23 11:59:53;;;;;;;7.30;5.93;;;;;;;;;;5103064;28;20609;-77
2023/07/23 12:02:20;;;;;;;8.85;5.10;;;;;;;;;;5092551;28;20228;-77
2023/07/23 12:04:50;;;;;;;7.60;5.18;;;;;;;;;;5112626;28;20202;-77
2023/07/23 12:07:17;;;;;;;6.65;5.82;;;;;;;;;;5113303;28;20226;-77
2023/07/23 12:09:44;;;;;;;8.50;5.45;;;;;;;;;;5115176;28;20204;-78
2023/07/23 12:12:14;;;;;;;8.02;5.68;;;;;;;;;;5094346;28;20579;-76
2023/07/23 12:14:42;;;;;;;6.93;5.30;;;;;;;;;;5093915;28;20568;-77
2023/07/23 12:17:09;;;;;;;6.22;4.93;;;;;;;;;;5059673;28;20254;-77
2023/07/23 12:19:43;;;;;;;5.90;5.22;;;;;;;;;;5092736;28;20693;-77
2023/07/23 12:22:10;;;;;;;6.38;5.32;;;;;;;;;;5094231;28;20269;-77
2023/07/23 12:24:38;;;;;;;5.55;5.05;;;;;;;;;;5076316;28;20655;-77
2023/07/23 12:27:07;;;;;;;5.82;5.28;;;;;;;;;;5078634;28;20196;-77
2023/07/23 12:29:41;;;;;;;5.78;5.07;;;;;;;;;;5096796;28;20261;-77
2023/07/23 12:32:10;;;;;;;6.10;5.43;;;;;;;;;;5114222;28;20282;-77
2023/07/23 12:34:38;;;;;;;6.13;5.15;;;;;;;;;;5096796;28;20616;-77
2023/07/23 12:37:06;;;;;;;5.50;4.60;;;;;;;;;;5113926;28;20249;-77
2023/07/23 12:39:33;;;;;;;6.22;5.38;;;;;;;;;;5114213;28;20202;-78
2023/07/23 12:42:00;;;;;;;5.40;4.78;;;;;;;;;;5095459;28;20223;-78
2023/07/23 12:44:27;;;;;;;6.70;5.32;;;;;;;;;;5096032;28;20605;-78
2023/07/23 12:46:55;;;;;;;5.30;4.65;;;;;;;;;;5095531;28;20662;-76
2023/07/23 12:49:22;;;;;;;9.85;5.22;;;;;;;;;;5079077;28;20191;-76
2023/07/23 12:51:50;;;;;;;6.40;5.30;;;;;;;;;;5095465;28;20227;-76
2023/07/23 12:54:17;;;;;;;7.15;5.22;;;;;;;;;;5076540;28;20254;-76
2023/07/23 12:56:44;;;;;;;5.38;4.88;;;;;;;;;;5075460;28;20204;-76
2023/07/23 12:59:10;;;;;;;5.60;5.10;;;;;;;;;;5093550;28;20574;-76
2023/07/23 13:01:38;;;;;;;5.82;5.25;;;;;;;;;;5093654;28;20220;-76
2023/07/23 13:04:06;;;;;;;5.00;4.50;;;;;;;;;;5093426;28;20219;-76
2023/07/23 13:06:34;;;;;;;5.00;4.50;;;;;;;;;;5074979;28;20200;-76
2023/07/23 13:09:00;;;;;;;8.52;5.18;;;;;;;;;;5075365;28;20681;-76
2023/07/23 13:11:27;;;;;;;5.30;4.35;;;;;;;;;;5092946;28;20204;-76
2023/07/23 13:13:54;;;;;;;6.47;4.15;;;;;;;;;;5074302;28;20212;-76
2023/07/23 13:16:21;;;;;;;5.15;4.65;;;;;;;;;;5093033;28;20548;-75
2023/07/23 13:18:48;;;;;;;8.38;4.53;;;;;;;;;;5058382;28;20269;-77
2023/07/23 13:21:16;;;;;;;5.25;4.72;;;;;;;;;;5074928;28;20224;-75
2023/07/23 13:23:43;;;;;;;5.53;5.03;;;;;;;;;;5074631;28;20196;-76
2023/07/23 13:26:10;;;;;;;9.95;4.57;;;;;;;;;;5092931;28;20196;-78
2023/07/23 13:28:37;;;;;;;5.50;5.00;;;;;;;;;;5092931;28;20197;-78
2023/07/23 13:31:04;;;;;;;6.72;4.75;;;;;;;;;;5074703;28;20204;-76
2023/07/23 13:33:31;;;;;;;5.95;4.80;;;;;;;;;;5074514;28;20204;-76
2023/07/23 13:35:58;;;;;;;6.30;5.00;;;;;;;;;;5074961;28;20204;-76
2023/07/23 13:38:26;;;;;;;5.78;5.20;;;;;;;;;;5074411;28;20204;-75
2023/07/23 13:40:53;;;;;;;5.75;5.15;;;;;;;;;;5092081;28;20200;-76
2023/07/23 13:43:20;;;;;;;5.43;4.93;;;;;;;;;;5074142;28;20220;-76
2023/07/23 13:45:47;;;;;;;9.40;5.15;;;;;;;;;;5112238;28;20221;-76
2023/07/23 13:48:14;;;;;;;5.85;4.82;;;;;;;;;;5094565;28;20200;-76
2023/07/23 13:50:42;;;;;;;7.15;4.97;;;;;;;;;;5112464;28;20227;-76
2023/07/23 13:53:08;;;;;;;4.95;4.30;;;;;;;;;;5112608;28;20657;-75
2023/07/23 13:55:37;;;;;;;6.32;5.22;;;;;;;;;;5094506;28;20665;-76
2023/07/23 13:58:04;;;;;;;8.07;4.68;;;;;;;;;;5111077;28;20562;-75
2023/07/23 14:00:31;;;;;;;5.03;4.53;;;;;;;;;;5094305;28;20207;-76
2023/07/23 14:02:58;;;;;;;8.18;4.60;;;;;;;;;;5112322;28;20716;-76
2023/07/23 14:05:28;;;;;;;5.90;4.30;;;;;;;;;;5078022;28;20203;-76
2023/07/23 14:07:57;;;;;;;4.88;4.45;;;;;;;;;;5078166;28;20264;-76
2023/07/23 14:10:24;;;;;;;5.72;4.50;;;;;;;;;;5090654;28;20196;-76
2023/07/23 14:12:53;;;;;;;6.28;5.68;;;;;;;;;;5091520;28;20230;-76
2023/07/23 14:15:20;;;;;;;5.55;5.05;;;;;;;;;;5091913;28;20204;-76
2023/07/23 14:17:47;;;;;;;8.07;5.07;;;;;;;;;;5092727;28;20203;-76
2023/07/23 14:20:14;;;;;;;5.75;5.07;;;;;;;;;;5040942;28;20207;-76
2023/07/23 14:22:41;;;;;;;4.95;4.53;;;;;;;;;;5091703;28;20227;-76
2023/07/23 14:25:09;;;;;;;4.75;4.30;;;;;;;;;;5091740;28;20663;-76
2023/07/23 14:27:36;;;;;;;6.55;4.65;;;;;;;;;;5055858;28;20216;-76
2023/07/23 14:30:06;;;;;;;5.15;4.63;;;;;;;;;;5091986;28;20655;-76
2023/07/23 14:32:33;;;;;;;9.38;4.82;;;;;;;;;;5090760;28;20200;-76
2023/07/23 14:35:00;;;;;;;5.35;4.85;;;;;;;;;;5092133;28;20651;-76
2023/07/23 14:37:27;;;;;;;5.63;5.03;;;;;;;;;;5074222;28;20200;-76
2023/07/23 14:39:54;;;;;;;5.35;4.75;;;;;;;;;;5091948;28;20207;-77
2023/07/23 14:42:21;;;;;;;6.47;4.65;;;;;;;;;;5091561;28;20233;-76
2023/07/23 14:44:48;;;;;;;5.47;4.60;;;;;;;;;;5092129;28;20573;-76